KTNU/TNU METAR and TAF weather

Enter ICAO airport designator
Station Type Date Time Source
KTNU METAR 2019/11/22 00:55 UTC NOAA

KTNU 220055Z AUTO 33015KT 10SM OVC014 00/M01 A3013 RMK A01


Station Type Date Time Source
KTNU Decoded METAR 2019/11/22 00:55 UTC NOAA

Newton Municipal, IA, United States (KTNU) 41-41N 093-01W
Nov 21, 2019 - 07:55 PM EST / 2019.11.22 0055 UTC
Wind: from the NNW (330 degrees) at 17 MPH (15 KT):0
Visibility: 10 mile(s):0
Sky conditions: overcast
Temperature: 32 F (0 C)
Windchill: 21 F (-6 C):1
Dew Point: 30 F (-1 C)
Relative Humidity: 92%
Pressure (altimeter): 30.13 in. Hg (1020 hPa)
ob: KTNU 220055Z AUTO 33015KT 10SM OVC014 00/M01 A3013 RMK A01
cycle: 1

Station Type Date Time Source
KTNU TAF UTC NOAA

Error!

Example: see airport list